Nenana Municipal Airport Nenana US
ICAO: PANN
IATA:
Category: Medium
Scheduled Services:

Elevation: 362 ft
TransAlt. 18000 ft.

Airport Communications:
FAIRBANKS APP/DEP:125.35
ASOS:125.2
CTAF:122.1
FAIRBANKS RDO:122.5
TWEB:115.8

PANN Zoom In..

Runways:

(A) RW 04L length 4600 ft width 100 ft
---- / hdg 38

(B) RW 04R length 2520 ft width 60 ft
---- / hdg 38

(C) RW 22L length 2520 ft width 60 ft
---- / hdg 218

(D) RW 22R length 4600 ft width 100 ft
---- / hdg 218

Location; PANN
Day. 22 / Time. 00.53 Zulu
* Altimeter: 29.28
* Temperature: 20° c. 68°f.
* Wind from: 140° Speed 10 kn with Gusts up to 15 kn.
Dewpoint: -01° c.
Visibility: 10 Statute Miles.
Clouds: Scattered 9000 ft.

PANN 220053Z AUTO 14010G15KT 10SM SCT090 20/M01 A2928 RMK SLP919 T02001011 TSNO VIA AUTODIAL


Wind From 140°
Speed 10 kn.

 
 
jpsmedia.com for Web Design SOUNDCLOUD worldairports.se 2018   terms of use